KDAB/DAB METAR and TAF weather

Enter ICAO airport designator
Station Type Date Time Source
KDAB METAR 2022/01/26 14:53 UTC NOAA

KDAB 261453Z 36008KT 9SM -RA BKN010 OVC022 16/14 A3011 RMK AO2 RAB52 SLP196 P0001 60001 T01560139 51015


Station Type Date Time Source
KDAB Decoded METAR 2022/01/26 14:53 UTC NOAA

DAYTONA BEACH INTERNATIONAL, FL, United States (KDAB) 29-10N 81-04W 9M
Jan 26, 2022 - 09:53 AM EST / 2022.01.26 1453 UTC
Wind: from the N (360 degrees) at 9 MPH (8 KT):0
Visibility: 9 mile(s):0
Sky conditions: overcast
Weather: light rain
Precipitation last hour: 0.01 inches
Temperature: 60.1 F (15.6 C)
Dew Point: 57.0 F (13.9 C)
Relative Humidity: 89%
Pressure (altimeter): 30.11 in. Hg (1019 hPa)
Pressure tendency: 0.04 inches (1.5 hPa) higher than three hours ago
ob: KDAB 261453Z 36008KT 9SM -RA BKN010 OVC022 16/14 A3011 RMK AO2 RAB52 SLP196 P0001 60001 T01560139 51015
cycle: 15

Station Type Date Time Source
KDAB TAF 2022/01/26 12:26 UTC NOAA

TAF KDAB 261123Z 2612/2712 02007KT 6SM -SHRA BR SCT004 BKN030 OVC040
TEMPO 2612/2616 4SM SHRA BR BKN004
FM261600 04010KT P6SM VCSH BKN025 BKN050
FM261800 01012KT P6SM BKN025 BKN050
FM270200 36009KT P6SM VCSH BKN030 OVC050

Example: see airport list